createdAt,value
2018-02-04T14:21:12.619Z,3.10
2018-02-04T14:23:40.137Z,3.10
2018-02-04T14:43:25.643Z,3.80
2018-02-04T14:45:53.213Z,3.80
2018-02-04T14:48:21.490Z,3.60
2018-02-04T14:50:49.754Z,3.60
2018-02-04T15:13:29.107Z,3.40
2018-02-04T15:15:56.628Z,3.30
2018-02-04T15:18:24.173Z,3.10
2018-02-04T15:20:51.692Z,3.00
2018-02-04T15:43:30.203Z,3.10
2018-02-04T15:45:57.728Z,3.00
2018-02-04T15:48:26.007Z,3.00
2018-02-04T15:50:54.280Z,3.00
2018-02-04T15:53:22.558Z,3.00
2018-02-04T15:55:50.836Z,3.00
2018-02-04T15:58:19.117Z,3.00
2018-02-04T16:00:47.587Z,3.00
2018-02-04T16:03:15.886Z,3.00
2018-02-04T16:05:44.190Z,3.00
2018-02-04T16:08:11.749Z,3.10
2018-02-04T16:10:39.266Z,2.80
2018-02-04T16:13:06.797Z,2.80
2018-02-04T16:15:34.323Z,2.80
2018-02-04T16:18:01.848Z,2.90
2018-02-04T16:20:30.127Z,3.00
2018-02-04T16:43:12.131Z,2.70
2018-02-04T17:05:49.417Z,2.90
2018-02-04T17:08:16.942Z,3.00
2018-02-04T17:10:44.469Z,3.10
2018-02-04T17:13:12.048Z,3.00
2018-02-04T17:15:39.575Z,2.90
2018-02-04T17:18:07.091Z,3.00
2018-02-04T17:20:34.609Z,3.00
2018-02-04T17:23:02.220Z,3.00
2018-02-04T17:25:30.506Z,3.00
2018-02-04T17:27:58.020Z,2.90
2018-02-04T17:30:26.311Z,2.80
2018-02-04T17:32:53.832Z,2.80
2018-02-04T17:53:01.262Z,3.00
2018-02-04T17:55:28.781Z,2.90
2018-02-04T17:57:56.317Z,2.80
2018-02-04T18:00:23.888Z,2.90
2018-02-04T18:02:52.183Z,3.00
2018-02-04T18:25:30.950Z,2.80
2018-02-04T18:27:58.476Z,2.80
2018-02-04T18:47:44.933Z,2.50
2018-02-04T18:50:12.466Z,2.60
2018-02-04T18:52:39.991Z,2.50
2018-02-04T18:55:07.505Z,2.50
2018-02-04T19:14:53.558Z,2.60
2018-02-04T19:17:21.083Z,2.60
2018-02-04T19:37:21.607Z,3.10
2018-02-04T19:57:29.481Z,3.00
2018-02-04T19:59:57.267Z,2.90
2018-02-04T20:02:24.827Z,2.90
2018-02-04T20:04:52.418Z,2.90
2018-02-04T20:07:20.720Z,3.00
2018-02-04T20:27:06.673Z,2.80
2018-02-04T20:46:53.749Z,2.50
2018-02-04T21:09:33.283Z,2.60
2018-02-04T21:12:00.807Z,2.40
2018-02-04T21:34:38.931Z,2.00
2018-02-04T21:37:07.287Z,1.80
2018-02-04T21:39:34.842Z,1.80
2018-02-04T21:42:02.458Z,1.90
2018-02-04T22:01:47.390Z,1.90
2018-02-04T22:04:14.908Z,1.90
2018-02-04T22:06:42.416Z,1.80
2018-02-04T22:26:28.159Z,1.90
2018-02-04T22:28:55.676Z,2.00
2018-02-04T22:48:39.463Z,2.10
2018-02-04T23:11:19.652Z,2.40
2018-02-04T23:13:47.927Z,2.40
2018-02-04T23:33:35.401Z,2.30
2018-02-04T23:36:02.946Z,2.30
2018-02-04T23:38:30.457Z,2.30
2018-02-04T23:40:57.979Z,2.30
2018-02-04T23:43:25.504Z,2.20
2018-02-04T23:45:53.817Z,1.90
2018-02-04T23:48:21.341Z,1.80
2018-02-04T23:50:48.875Z,1.90
